Time;durP1;ratioP1;P1;durP2;ratioP2;P2;SDS_P1;SDS_P2;PMS_P1;PMS_P2;Temp;Humidity;BMP_temperature;BMP_pressure;BME280_temperature;BME280_humidity;BME280_pressure;Samples;Min_cycle;Max_cycle;Signal;HPM_P1;HPM_P2
2022/03/06 00:00:57;;;;;;;42.98;34.70;;;27.70;83.50;;;;;;1778494;79;21190;-82
2022/03/06 00:03:28;;;;;;;47.85;36.05;;;27.80;83.60;;;;;;1778912;79;21174;-83
2022/03/06 00:05:59;;;;;;;42.70;34.78;;;27.80;83.80;;;;;;1852323;74;21144;-83
2022/03/06 00:08:29;;;;;;;45.73;34.35;;;27.80;83.20;;;;;;1855610;76;21176;-83
2022/03/06 00:11:00;;;;;;;43.02;35.65;;;27.80;83.00;;;;;;1850158;76;21593;-83
2022/03/06 00:13:32;;;;;;;36.55;32.55;;;27.80;83.40;;;;;;1849420;77;21209;-82
2022/03/06 00:16:03;;;;;;;41.58;33.30;;;27.80;82.70;;;;;;1868360;75;21124;-81
2022/03/06 00:18:36;;;;;;;41.75;35.17;;;27.90;83.50;;;;;;1892224;75;21111;-83
2022/03/06 00:21:07;;;;;;;47.13;34.33;;;28.00;83.30;;;;;;1869519;76;21113;-81
2022/03/06 00:23:37;;;;;;;39.18;35.03;;;28.00;83.60;;;;;;1880504;76;21124;-83
2022/03/06 00:26:08;;;;;;;40.85;35.13;;;28.00;83.60;;;;;;1868086;76;21563;-83
2022/03/06 00:28:39;;;;;;;42.60;35.65;;;28.00;83.00;;;;;;1875875;76;21127;-82
2022/03/06 00:31:09;;;;;;;44.40;35.92;;;28.00;83.00;;;;;;1880787;76;21061;-83
2022/03/06 00:33:40;;;;;;;40.45;33.78;;;28.10;83.80;;;;;;1880358;76;21084;-82
2022/03/06 00:36:11;;;;;;;41.08;34.33;;;28.00;83.00;;;;;;1874825;75;21214;-81
2022/03/06 00:38:42;;;;;;;37.48;33.45;;;28.10;83.40;;;;;;1874387;76;21120;-82
2022/03/06 00:41:14;;;;;;;37.00;32.00;;;28.20;83.70;;;;;;1881527;75;21631;-83
2022/03/06 00:43:45;;;;;;;37.65;32.17;;;28.20;83.60;;;;;;1875254;76;21210;-83
2022/03/06 00:46:16;;;;;;;37.03;31.15;;;28.30;84.10;;;;;;1879070;75;21178;-82
2022/03/06 00:48:47;;;;;;;37.73;30.50;;;28.30;83.80;;;;;;1875949;76;21644;-83
2022/03/06 00:51:18;;;;;;;37.50;30.65;;;28.40;83.80;;;;;;1878916;76;21155;-82
2022/03/06 00:53:48;;;;;;;33.60;29.95;;;28.40;83.60;;;;;;1877594;76;21056;-82
2022/03/06 00:56:19;;;;;;;33.40;29.07;;;28.50;83.80;;;;;;1880743;76;21107;-82
2022/03/06 00:58:49;;;;;;;44.38;31.57;;;28.50;82.90;;;;;;1877103;76;21222;-84
2022/03/06 01:01:21;;;;;;;35.30;31.23;;;28.60;83.40;;;;;;1868807;75;21594;-81
2022/03/06 01:03:52;;;;;;;38.63;33.75;;;28.70;83.10;;;;;;1879475;76;21127;-82
2022/03/06 01:06:23;;;;;;;39.03;33.42;;;28.70;83.60;;;;;;1868853;76;21143;-82
2022/03/06 01:08:53;;;;;;;43.02;32.98;;;28.70;83.40;;;;;;1879869;75;21765;-85
2022/03/06 01:11:24;;;;;;;41.83;34.70;;;28.70;83.60;;;;;;1884042;76;21085;-85
2022/03/06 01:13:55;;;;;;;38.88;34.70;;;28.80;83.70;;;;;;1876866;76;21189;-84
2022/03/06 01:16:26;;;;;;;36.20;32.28;;;28.80;83.60;;;;;;1866970;76;21769;-79
2022/03/06 01:18:56;;;;;;;38.98;33.53;;;28.80;83.40;;;;;;1868273;76;21153;-80
2022/03/06 01:21:27;;;;;;;38.98;34.38;;;28.90;83.60;;;;;;1873102;76;21176;-79
2022/03/06 01:23:58;;;;;;;37.45;33.53;;;28.90;83.50;;;;;;1873692;76;21191;-80
2022/03/06 01:26:29;;;;;;;38.98;34.78;;;28.90;83.30;;;;;;1797167;78;21105;-79
2022/03/06 01:29:00;;;;;;;38.85;34.60;;;29.00;83.60;;;;;;1796138;78;21179;-80
2022/03/06 01:31:30;;;;;;;39.45;34.15;;;29.00;83.60;;;;;;1826781;78;21614;-80
2022/03/06 01:34:03;;;;;;;39.10;33.92;;;29.00;83.20;;;;;;1841627;78;21606;-80
2022/03/06 01:36:33;;;;;;;38.75;34.08;;;29.10;83.00;;;;;;1811018;78;21258;-81
2022/03/06 01:39:04;;;;;;;37.60;33.60;;;29.10;82.90;;;;;;1822276;78;21169;-81
2022/03/06 01:41:36;;;;;;;37.93;31.48;;;29.20;82.90;;;;;;1799085;78;21270;-81
2022/03/06 01:44:09;;;;;;;43.58;35.15;;;29.20;82.50;;;;;;1814827;78;21207;-82
2022/03/06 01:46:41;;;;;;;42.75;34.03;;;29.30;82.80;;;;;;1792684;78;21160;-80
2022/03/06 01:49:11;;;;;;;38.38;33.28;;;29.30;82.70;;;;;;1820862;78;21103;-81
2022/03/06 01:51:43;;;;;;;37.50;32.60;;;29.30;82.30;;;;;;1828922;78;21168;-81
2022/03/06 01:54:14;;;;;;;36.00;32.15;;;29.30;82.40;;;;;;1823254;78;21124;-80
2022/03/06 01:56:45;;;;;;;38.28;32.48;;;29.40;82.10;;;;;;1823066;77;21171;-81
2022/03/06 01:59:16;;;;;;;34.80;30.95;;;29.40;82.00;;;;;;1821250;78;21160;-79
2022/03/06 02:01:46;;;;;;;40.10;32.50;;;29.40;82.00;;;;;;1824163;76;21097;-81
2022/03/06 02:04:18;;;;;;;35.88;32.17;;;29.50;82.20;;;;;;1822818;78;21108;-80
2022/03/06 02:06:49;;;;;;;36.17;32.13;;;29.50;82.10;;;;;;1834317;77;21132;-80
2022/03/06 02:09:20;;;;;;;35.85;32.00;;;29.50;81.80;;;;;;1799423;78;21250;-82
2022/03/06 02:14:23;;;;;;;35.33;31.60;;;29.70;80.80;;;;;;1869405;75;21294;-80
2022/03/06 02:16:53;;;;;;;37.58;31.33;;;29.70;80.60;;;;;;1868434;76;21136;-80
2022/03/06 02:19:24;;;;;;;32.48;28.85;;;29.80;80.10;;;;;;1875311;76;21254;-81
2022/03/06 02:21:55;;;;;;;34.23;30.27;;;29.90;79.70;;;;;;1872202;76;21454;-81
2022/03/06 02:24:26;;;;;;;34.23;28.73;;;29.90;79.00;;;;;;1873748;76;21557;-80
2022/03/06 02:26:59;;;;;;;34.23;29.40;;;29.90;79.00;;;;;;1871090;75;21143;-81
2022/03/06 02:29:29;;;;;;;31.30;27.98;;;29.90;79.00;;;;;;1873394;76;21201;-82
2022/03/06 02:32:01;;;;;;;30.32;27.13;;;30.00;78.60;;;;;;1872979;76;21144;-82
2022/03/06 02:34:32;;;;;;;28.42;25.60;;;30.00;77.40;;;;;;1869895;75;21604;-82
2022/03/06 02:37:03;;;;;;;34.83;27.00;;;30.00;77.30;;;;;;1883470;75;21820;-82
2022/03/06 02:39:34;;;;;;;29.20;26.30;;;30.10;77.40;;;;;;1881936;76;21111;-82
2022/03/06 02:42:06;;;;;;;31.02;26.85;;;30.10;77.10;;;;;;1874503;75;21190;-81
2022/03/06 02:44:37;;;;;;;29.40;26.30;;;30.20;77.20;;;;;;1864062;75;21580;-80
2022/03/06 02:47:08;;;;;;;27.87;24.90;;;30.30;77.00;;;;;;1872215;75;21609;-80
2022/03/06 02:49:39;;;;;;;28.40;25.00;;;30.30;76.40;;;;;;1864468;76;21162;-80
2022/03/06 02:52:10;;;;;;;28.00;25.02;;;30.40;75.90;;;;;;1862105;76;21045;-80
2022/03/06 02:54:40;;;;;;;27.50;24.70;;;30.50;75.40;;;;;;1870928;75;21136;-80
2022/03/06 02:57:13;;;;;;;28.52;25.55;;;30.50;75.30;;;;;;1870522;76;21155;-81
2022/03/06 02:59:43;;;;;;;28.38;25.48;;;30.60;75.00;;;;;;1867051;76;21138;-81
2022/03/06 03:02:14;;;;;;;27.87;24.98;;;30.70;74.50;;;;;;1855104;76;21144;-81
2022/03/06 03:04:45;;;;;;;28.73;25.75;;;30.80;74.20;;;;;;1869985;76;21067;-82
2022/03/06 03:07:16;;;;;;;29.05;24.65;;;30.80;73.70;;;;;;1874998;75;21598;-81
2022/03/06 03:09:47;;;;;;;27.22;24.35;;;30.90;73.70;;;;;;1866936;76;21621;-81
2022/03/06 03:12:17;;;;;;;25.35;22.65;;;30.90;73.40;;;;;;1889461;75;21151;-80
2022/03/06 03:14:48;;;;;;;29.42;24.82;;;31.00;73.70;;;;;;1859630;76;21163;-81
2022/03/06 03:17:19;;;;;;;28.32;24.30;;;31.00;73.10;;;;;;1860525;76;21113;-80
2022/03/06 03:19:49;;;;;;;29.72;26.48;;;31.10;72.50;;;;;;1855958;76;21144;-81
2022/03/06 03:22:20;;;;;;;28.05;24.67;;;31.10;73.70;;;;;;1794897;79;21168;-80
2022/03/06 03:24:51;;;;;;;26.70;23.87;;;31.20;72.60;;;;;;1796781;78;21207;-81
2022/03/06 03:27:21;;;;;;;25.88;23.27;;;31.20;72.30;;;;;;1811622;79;21682;-80
2022/03/06 03:29:52;;;;;;;26.42;23.20;;;31.30;72.10;;;;;;1827797;78;21685;-81
2022/03/06 03:32:23;;;;;;;27.02;24.23;;;31.40;71.70;;;;;;1869798;76;22178;-81
2022/03/06 03:34:53;;;;;;;27.87;24.87;;;31.50;71.60;;;;;;1872215;75;21221;-82
2022/03/06 03:37:24;;;;;;;28.27;25.12;;;31.60;71.90;;;;;;1873200;75;21206;-80
2022/03/06 03:39:55;;;;;;;28.52;25.55;;;31.70;71.30;;;;;;1878330;75;21516;-80
2022/03/06 03:42:26;;;;;;;26.23;23.62;;;31.80;70.30;;;;;;1867612;75;21143;-81
2022/03/06 03:44:57;;;;;;;27.55;23.87;;;31.90;69.90;;;;;;1876457;76;21167;-79
2022/03/06 03:47:28;;;;;;;27.42;24.52;;;31.90;69.90;;;;;;1879148;76;21108;-80
2022/03/06 03:49:58;;;;;;;28.45;25.52;;;32.00;69.90;;;;;;1883106;75;21582;-82
2022/03/06 03:52:29;;;;;;;26.93;24.00;;;32.10;69.40;;;;;;1875640;75;21171;-76
2022/03/06 03:55:00;;;;;;;29.52;26.52;;;32.10;69.50;;;;;;1877163;75;21108;-76
2022/03/06 03:57:31;;;;;;;28.87;25.57;;;32.20;69.00;;;;;;1873654;75;21135;-76
2022/03/06 04:00:02;;;;;;;28.30;25.40;;;32.30;68.70;;;;;;1875849;76;21229;-75
2022/03/06 04:02:33;;;;;;;29.87;26.35;;;32.40;68.90;;;;;;1875078;75;21132;-79
2022/03/06 04:05:05;;;;;;;29.37;26.17;;;32.40;68.90;;;;;;1865536;75;21778;-76
2022/03/06 04:07:36;;;;;;;30.50;27.42;;;32.60;68.20;;;;;;1876145;75;21167;-80
2022/03/06 04:10:07;;;;;;;27.73;24.80;;;32.70;67.70;;;;;;1835039;77;21740;-77
2022/03/06 04:12:37;;;;;;;26.93;23.98;;;32.80;66.80;;;;;;1825800;77;21986;-80
2022/03/06 04:15:09;;;;;;;27.45;23.77;;;33.00;66.10;;;;;;1823472;77;21206;-80
2022/03/06 04:17:40;;;;;;;27.87;25.08;;;33.00;66.50;;;;;;1814744;78;21164;-79
2022/03/06 04:20:11;;;;;;;26.07;23.57;;;33.10;65.50;;;;;;1799995;78;21166;-80
2022/03/06 04:22:43;;;;;;;26.30;23.60;;;33.20;64.30;;;;;;1818198;77;22026;-84
2022/03/06 04:25:13;;;;;;;25.15;22.58;;;33.40;64.40;;;;;;1818118;77;21085;-77
2022/03/06 04:27:44;;;;;;;28.70;25.70;;;33.40;63.80;;;;;;1820366;77;21594;-77
2022/03/06 04:30:16;;;;;;;26.87;24.10;;;33.50;62.30;;;;;;1811769;77;21653;-77
2022/03/06 04:32:47;;;;;;;26.80;24.07;;;33.60;62.60;;;;;;1769818;78;22392;-76
2022/03/06 04:35:17;;;;;;;27.10;24.30;;;33.50;62.40;;;;;;1825043;77;21194;-77
2022/03/06 04:37:49;;;;;;;26.30;23.65;;;33.50;62.50;;;;;;1870180;76;21585;-76
2022/03/06 04:40:20;;;;;;;26.55;23.83;;;33.60;63.00;;;;;;1878380;76;21535;-77
2022/03/06 04:42:50;;;;;;;25.90;23.20;;;33.70;63.00;;;;;;1880247;76;21139;-79
2022/03/06 04:45:24;;;;;;;30.57;27.27;;;33.80;62.90;;;;;;1881493;75;21662;-78
2022/03/06 04:47:53;;;;;;;27.58;24.70;;;33.90;61.80;;;;;;1870182;76;21143;-77
2022/03/06 04:50:24;;;;;;;27.62;24.72;;;34.10;61.50;;;;;;1875801;75;21068;-77
2022/03/06 04:52:55;;;;;;;28.23;23.98;;;34.00;60.90;;;;;;1878072;75;21115;-78
2022/03/06 04:55:26;;;;;;;27.52;24.60;;;34.10;60.70;;;;;;1869475;76;21218;-80
2022/03/06 04:57:57;;;;;;;28.42;24.43;;;34.20;60.50;;;;;;1874998;75;21578;-79
2022/03/06 05:00:28;;;;;;;26.85;24.25;;;34.10;60.80;;;;;;1864663;76;21088;-77
2022/03/06 05:02:59;;;;;;;27.22;24.07;;;34.00;60.90;;;;;;1882080;75;21182;-78
2022/03/06 05:05:30;;;;;;;25.17;22.48;;;34.00;61.40;;;;;;1877728;76;21574;-78
2022/03/06 05:08:01;;;;;;;29.60;25.00;;;34.00;61.30;;;;;;1862848;76;21586;-78
2022/03/06 05:10:32;;;;;;;23.92;21.65;;;34.20;61.70;;;;;;1863323;75;21225;-78
2022/03/06 05:13:02;;;;;;;23.22;20.37;;;34.30;60.00;;;;;;1878282;75;21152;-77
2022/03/06 05:15:34;;;;;;;23.92;21.45;;;34.40;59.60;;;;;;1865040;75;21627;-77
2022/03/06 05:18:05;;;;;;;22.98;20.62;;;34.50;59.10;;;;;;1868682;76;21139;-78
2022/03/06 05:20:35;;;;;;;24.23;21.25;;;34.50;59.50;;;;;;1874241;76;21275;-77
2022/03/06 05:23:06;;;;;;;24.18;21.75;;;34.50;59.30;;;;;;1869321;75;21139;-78
2022/03/06 05:25:37;;;;;;;23.80;21.30;;;34.60;59.80;;;;;;1857952;76;21300;-79
2022/03/06 05:28:08;;;;;;;28.98;22.17;;;34.70;59.70;;;;;;1865665;76;21131;-77
2022/03/06 05:30:38;;;;;;;26.65;23.77;;;34.70;60.10;;;;;;1864859;76;21159;-78
2022/03/06 05:33:09;;;;;;;24.10;21.60;;;34.80;60.40;;;;;;1873653;75;21116;-85
2022/03/06 05:35:40;;;;;;;24.55;21.87;;;35.00;59.50;;;;;;1880862;75;21128;-84
2022/03/06 05:38:11;;;;;;;25.70;22.95;;;35.00;59.10;;;;;;1876094;76;21190;-84
2022/03/06 05:40:43;;;;;;;26.30;21.97;;;35.00;60.00;;;;;;1879790;75;21551;-84
2022/03/06 05:43:13;;;;;;;23.52;21.07;;;34.90;59.90;;;;;;1880906;75;21703;-85
2022/03/06 05:45:50;;;;;;;23.38;20.92;;;34.70;59.10;;;;;;1865846;76;21057;-85
2022/03/06 05:48:17;;;;;;;22.40;20.10;;;34.50;59.10;;;;;;1881399;75;21154;-84
2022/03/06 05:50:49;;;;;;;25.10;22.55;;;34.40;59.30;;;;;;1868120;76;21127;-85
2022/03/06 05:53:20;;;;;;;22.82;20.23;;;34.30;60.00;;;;;;1874942;75;21116;-84
2022/03/06 05:55:51;;;;;;;24.10;21.75;;;34.30;59.20;;;;;;1879727;76;21069;-84
2022/03/06 05:58:21;;;;;;;24.23;21.48;;;34.40;59.40;;;;;;1868311;76;21064;-84
2022/03/06 06:00:52;;;;;;;22.70;19.23;;;34.50;58.20;;;;;;1887986;76;21240;-84
2022/03/06 06:03:25;;;;;;;21.27;18.73;;;34.60;57.50;;;;;;1863148;76;21163;-85
2022/03/06 06:05:55;;;;;;;35.08;20.60;;;34.70;56.80;;;;;;1876239;76;21174;-84
2022/03/06 06:08:26;;;;;;;21.52;18.98;;;34.80;56.40;;;;;;1872156;75;21164;-84
2022/03/06 06:10:57;;;;;;;20.48;18.27;;;34.90;56.70;;;;;;1812104;78;21210;-85
2022/03/06 06:13:27;;;;;;;21.48;19.45;;;35.00;57.00;;;;;;1812290;77;21558;-84
2022/03/06 06:15:58;;;;;;;21.93;19.62;;;35.00;55.90;;;;;;1840132;77;21052;-85
2022/03/06 06:18:31;;;;;;;23.55;21.12;;;35.00;55.90;;;;;;1836928;77;21080;-85
2022/03/06 06:21:01;;;;;;;22.65;19.87;;;35.00;56.40;;;;;;1827301;77;21146;-85
2022/03/06 06:23:32;;;;;;;23.38;20.68;;;35.00;55.90;;;;;;1842637;77;21139;-85
2022/03/06 06:26:05;;;;;;;23.10;20.75;;;35.00;55.60;;;;;;1830471;77;21163;-84
2022/03/06 06:28:35;;;;;;;22.35;20.15;;;35.00;56.40;;;;;;1812832;77;21174;-84
2022/03/06 06:31:07;;;;;;;22.52;19.85;;;34.90;57.70;;;;;;1822418;78;21658;-84
2022/03/06 06:33:38;;;;;;;21.35;19.35;;;34.80;57.40;;;;;;1824874;78;21132;-84
2022/03/06 06:36:09;;;;;;;21.62;19.42;;;34.70;58.30;;;;;;1807637;78;21269;-84
2022/03/06 06:38:40;;;;;;;21.15;19.15;;;34.70;57.90;;;;;;1820147;78;21145;-84
2022/03/06 06:41:11;;;;;;;21.52;19.23;;;34.50;57.70;;;;;;1824754;78;21226;-85
2022/03/06 06:43:42;;;;;;;23.67;19.77;;;34.60;57.90;;;;;;1874262;76;21138;-84
2022/03/06 06:46:13;;;;;;;22.05;19.82;;;34.60;57.80;;;;;;1880167;76;21269;-84
2022/03/06 06:48:44;;;;;;;24.43;19.30;;;34.80;57.90;;;;;;1876989;76;21084;-84
2022/03/06 06:51:15;;;;;;;21.27;18.90;;;34.90;57.50;;;;;;1881506;76;21604;-84
2022/03/06 06:53:45;;;;;;;22.90;20.02;;;35.00;57.90;;;;;;1880315;76;21704;-84
2022/03/06 06:56:16;;;;;;;21.57;19.37;;;34.90;57.00;;;;;;1879642;76;21229;-84
2022/03/06 06:58:47;;;;;;;21.00;18.95;;;34.90;57.60;;;;;;1876346;76;21072;-84
2022/03/06 07:01:19;;;;;;;24.35;18.67;;;34.80;57.50;;;;;;1880786;75;21111;-83
2022/03/06 07:03:50;;;;;;;21.87;19.62;;;34.70;57.60;;;;;;1879443;75;21057;-84
2022/03/06 07:06:21;;;;;;;21.77;19.57;;;34.70;58.00;;;;;;1871180;76;21187;-85
2022/03/06 07:08:52;;;;;;;21.95;19.80;;;34.80;59.00;;;;;;1814329;78;21065;-84
2022/03/06 07:11:23;;;;;;;20.82;18.62;;;34.80;58.20;;;;;;1830591;77;21285;-84
2022/03/06 07:13:54;;;;;;;21.50;19.42;;;34.80;58.50;;;;;;1801349;79;21124;-85
2022/03/06 07:16:25;;;;;;;21.55;19.10;;;34.70;57.70;;;;;;1865909;75;21233;-85
2022/03/06 07:18:56;;;;;;;20.92;18.82;;;34.70;58.10;;;;;;1855596;75;21084;-84
2022/03/06 07:21:27;;;;;;;21.37;19.27;;;34.70;57.50;;;;;;1828642;77;21249;-84
2022/03/06 07:23:58;;;;;;;21.62;19.42;;;34.80;57.90;;;;;;1860939;75;21616;-85
2022/03/06 07:26:29;;;;;;;22.77;20.32;;;34.80;58.80;;;;;;1860702;75;21076;-84
2022/03/06 07:29:00;;;;;;;22.00;19.70;;;34.90;57.90;;;;;;1858711;75;21641;-84
2022/03/06 07:31:31;;;;;;;22.77;20.57;;;35.00;58.20;;;;;;1858708;75;21122;-84
2022/03/06 07:34:02;;;;;;;24.92;22.17;;;35.10;57.30;;;;;;1859229;75;21119;-84
2022/03/06 07:36:33;;;;;;;20.62;18.32;;;35.20;57.40;;;;;;1856488;75;21736;-84
2022/03/06 07:39:04;;;;;;;20.88;18.77;;;35.30;56.80;;;;;;1844967;76;21144;-85
2022/03/06 07:41:35;;;;;;;21.05;18.95;;;35.30;57.00;;;;;;1837803;75;21142;-85
2022/03/06 07:44:06;;;;;;;20.75;18.85;;;35.30;56.20;;;;;;1840714;75;21131;-84
2022/03/06 07:46:37;;;;;;;22.52;20.12;;;35.30;56.10;;;;;;1858800;77;21138;-84
2022/03/06 07:49:08;;;;;;;20.90;18.98;;;35.30;57.60;;;;;;1826780;78;21119;-84
2022/03/06 07:51:38;;;;;;;22.48;20.17;;;35.30;56.70;;;;;;1853209;77;21140;-85
2022/03/06 07:54:14;;;;;;;23.27;20.65;;;35.20;56.80;;;;;;1852313;75;21174;-85
2022/03/06 07:56:42;;;;;;;22.22;19.85;;;35.20;56.40;;;;;;1846843;75;21205;-85
2022/03/06 07:59:13;;;;;;;21.82;19.48;;;35.20;56.40;;;;;;1825719;78;21177;-85
2022/03/06 08:01:44;;;;;;;21.10;19.00;;;35.20;55.80;;;;;;1842178;75;21100;-86
2022/03/06 08:04:15;;;;;;;22.90;20.62;;;35.20;55.90;;;;;;1852187;75;21158;-85
2022/03/06 08:06:48;;;;;;;22.40;18.52;;;35.20;56.10;;;;;;1826308;78;21198;-85
2022/03/06 08:09:19;;;;;;;20.80;18.70;;;35.20;56.50;;;;;;1822704;76;21533;-84
2022/03/06 08:11:50;;;;;;;21.50;19.50;;;35.30;56.40;;;;;;1856231;75;21182;-85
2022/03/06 08:14:21;;;;;;;25.12;21.02;;;35.30;56.70;;;;;;1854711;75;21419;-85
2022/03/06 08:16:51;;;;;;;21.87;19.55;;;35.30;55.80;;;;;;1873079;76;21057;-85
2022/03/06 08:19:23;;;;;;;21.75;19.50;;;35.30;56.10;;;;;;1874438;76;21515;-85
2022/03/06 08:21:53;;;;;;;21.42;19.20;;;35.30;55.60;;;;;;1875459;76;21587;-87
2022/03/06 08:24:25;;;;;;;23.85;19.42;;;35.30;55.30;;;;;;1874983;76;21485;-86
2022/03/06 08:26:58;;;;;;;21.77;19.55;;;35.30;55.40;;;;;;1871370;76;21605;-87
2022/03/06 08:29:28;;;;;;;21.00;18.80;;;35.30;55.40;;;;;;1866331;76;21147;-86
2022/03/06 08:32:02;;;;;;;21.00;18.95;;;35.30;55.70;;;;;;1878020;76;21154;-85
2022/03/06 08:34:33;;;;;;;21.00;18.92;;;35.30;57.20;;;;;;1874858;76;21117;-85
2022/03/06 08:37:06;;;;;;;20.82;18.67;;;35.30;56.00;;;;;;1867482;76;21127;-85
2022/03/06 08:39:37;;;;;;;21.25;19.05;;;35.30;56.80;;;;;;1851698;76;21045;-84
2022/03/06 08:42:08;;;;;;;21.10;19.00;;;35.30;55.80;;;;;;1879543;76;21116;-84
2022/03/06 08:44:39;;;;;;;20.82;18.70;;;35.30;56.10;;;;;;1878469;75;21100;-86
2022/03/06 08:47:10;;;;;;;21.93;18.85;;;35.30;55.50;;;;;;1867879;76;21139;-86
2022/03/06 08:49:41;;;;;;;21.55;19.35;;;35.30;55.40;;;;;;1870007;76;21654;-85
2022/03/06 08:52:12;;;;;;;21.23;19.10;;;35.30;55.20;;;;;;1865339;76;21143;-85
2022/03/06 08:54:43;;;;;;;22.27;19.98;;;35.30;55.40;;;;;;1866679;75;21665;-85
2022/03/06 08:57:14;;;;;;;22.37;19.98;;;35.30;55.90;;;;;;1869802;76;21132;-85
2022/03/06 08:59:45;;;;;;;23.07;20.65;;;35.30;55.90;;;;;;1864434;76;21421;-84
2022/03/06 09:02:15;;;;;;;25.60;20.60;;;35.30;56.00;;;;;;1811045;77;21201;-84
2022/03/06 09:04:47;;;;;;;22.32;20.17;;;35.30;55.80;;;;;;1839539;78;22038;-85
2022/03/06 09:07:18;;;;;;;27.05;23.98;;;35.30;55.90;;;;;;1844377;77;21194;-85
2022/03/06 09:09:49;;;;;;;22.95;20.57;;;35.20;55.70;;;;;;1838839;77;21152;-85
2022/03/06 09:12:21;;;;;;;21.70;19.40;;;35.30;55.40;;;;;;1838315;77;21191;-84
2022/03/06 09:14:52;;;;;;;22.52;20.23;;;35.30;55.80;;;;;;1834395;77;21229;-83
2022/03/06 09:17:23;;;;;;;22.90;20.70;;;35.30;55.30;;;;;;1832821;77;21131;-84
2022/03/06 09:19:55;;;;;;;23.27;20.25;;;35.30;55.40;;;;;;1846180;77;21207;-85
2022/03/06 09:22:26;;;;;;;21.82;19.50;;;35.20;55.20;;;;;;1841971;77;21144;-85
2022/03/06 09:24:57;;;;;;;24.32;20.17;;;35.20;55.50;;;;;;1835399;78;21578;-84
2022/03/06 09:27:28;;;;;;;24.15;21.62;;;35.20;55.70;;;;;;1838285;77;21130;-84
2022/03/06 09:29:58;;;;;;;22.42;20.15;;;35.10;56.10;;;;;;1836391;77;21171;-84
2022/03/06 09:32:29;;;;;;;22.30;19.95;;;35.10;55.60;;;;;;1840838;77;21954;-84
2022/03/06 09:35:01;;;;;;;22.32;19.52;;;35.10;55.90;;;;;;1846083;77;21248;-85
2022/03/06 09:37:33;;;;;;;21.35;19.05;;;35.10;55.90;;;;;;1861065;75;21178;-84
2022/03/06 09:40:06;;;;;;;21.25;19.25;;;35.00;55.80;;;;;;1876001;76;21085;-84
2022/03/06 09:42:37;;;;;;;21.77;18.87;;;35.10;55.90;;;;;;1879132;75;21652;-83
2022/03/06 09:45:10;;;;;;;22.37;20.23;;;35.00;55.80;;;;;;1834205;78;21226;-82
2022/03/06 09:47:44;;;;;;;21.10;18.95;;;35.00;55.70;;;;;;1811369;78;21155;-83
2022/03/06 09:50:16;;;;;;;25.25;19.90;;;35.00;55.70;;;;;;1818101;77;21151;-82
2022/03/06 09:52:47;;;;;;;22.80;20.37;;;34.90;55.80;;;;;;1796624;78;21643;-78
2022/03/06 09:55:18;;;;;;;21.75;19.50;;;34.90;56.10;;;;;;1804885;77;21144;-79
2022/03/06 09:57:51;;;;;;;25.82;23.02;;;34.90;56.10;;;;;;1808059;77;21105;-78
2022/03/06 10:00:21;;;;;;;22.42;20.40;;;34.80;56.40;;;;;;1817854;78;21081;-77
2022/03/06 10:02:54;;;;;;;22.45;20.15;;;34.80;56.80;;;;;;1808696;77;21456;-77
2022/03/06 10:05:28;;;;;;;23.02;20.82;;;34.80;56.90;;;;;;1853406;76;21148;-77
2022/03/06 10:08:01;;;;;;;23.35;19.32;;;34.70;57.00;;;;;;1852227;77;21221;-77
2022/03/06 10:10:34;;;;;;;22.73;20.35;;;34.70;57.00;;;;;;1818902;77;21180;-78
2022/03/06 10:13:10;;;;;;;26.10;23.32;;;34.70;57.00;;;;;;1878764;75;22034;-78
2022/03/06 10:15:43;;;;;;;22.80;20.50;;;34.60;57.30;;;;;;1874293;76;21127;-78
2022/03/06 10:18:15;;;;;;;24.00;21.17;;;34.60;57.20;;;;;;1871607;76;21156;-76
2022/03/06 10:20:45;;;;;;;23.73;21.33;;;34.60;57.40;;;;;;1879047;75;21225;-77
2022/03/06 10:23:20;;;;;;;22.37;20.17;;;34.60;57.00;;;;;;1877579;75;21218;-77
2022/03/06 10:25:54;;;;;;;21.70;19.52;;;34.50;57.00;;;;;;1871568;76;21558;-77
2022/03/06 10:28:26;;;;;;;25.05;22.42;;;34.50;57.30;;;;;;1872467;75;21138;-78
2022/03/06 10:30:59;;;;;;;24.52;22.02;;;34.40;57.10;;;;;;1883683;74;21064;-79
2022/03/06 10:33:29;;;;;;;23.55;20.95;;;34.40;57.50;;;;;;1882278;76;21415;-80
2022/03/06 10:36:02;;;;;;;24.02;21.48;;;34.40;57.30;;;;;;1891783;75;21190;-80
2022/03/06 10:38:35;;;;;;;26.77;23.87;;;34.40;57.60;;;;;;1881630;75;21115;-81
2022/03/06 10:41:08;;;;;;;27.10;22.60;;;34.40;57.90;;;;;;1865255;76;21064;-77
2022/03/06 10:43:40;;;;;;;25.32;22.70;;;34.40;58.20;;;;;;1866049;76;21207;-78
2022/03/06 10:46:13;;;;;;;24.67;22.05;;;34.30;58.40;;;;;;1876147;76;21225;-78
2022/03/06 10:48:46;;;;;;;25.65;22.90;;;34.30;58.70;;;;;;1883032;74;21144;-79
2022/03/06 10:51:18;;;;;;;26.95;23.12;;;34.20;59.00;;;;;;1877610;74;21233;-79
2022/03/06 10:53:51;;;;;;;26.17;21.02;;;34.20;59.00;;;;;;1874730;76;21186;-78
2022/03/06 10:56:23;;;;;;;25.12;22.62;;;34.10;58.90;;;;;;1887956;75;21152;-78
2022/03/06 10:58:54;;;;;;;25.43;21.77;;;34.10;58.90;;;;;;1882968;75;21429;-78
2022/03/06 11:01:27;;;;;;;24.82;22.40;;;34.00;58.90;;;;;;1872639;75;21056;-81
2022/03/06 11:04:00;;;;;;;25.80;23.00;;;34.00;59.00;;;;;;1879943;74;21179;-80
2022/03/06 11:06:36;;;;;;;25.15;22.27;;;33.90;59.00;;;;;;1890817;75;21144;-81
2022/03/06 11:09:08;;;;;;;27.40;23.67;;;33.90;59.10;;;;;;1832733;76;21237;-80
2022/03/06 11:11:41;;;;;;;24.50;21.97;;;33.80;59.20;;;;;;1837807;77;21615;-82
2022/03/06 11:14:13;;;;;;;25.65;22.70;;;33.80;59.40;;;;;;1897928;74;21131;-81
2022/03/06 11:16:44;;;;;;;30.85;24.55;;;33.80;59.50;;;;;;1881861;74;21190;-82
2022/03/06 11:19:15;;;;;;;30.57;24.12;;;33.70;59.50;;;;;;1871458;75;21093;-83
2022/03/06 11:21:50;;;;;;;28.42;25.40;;;33.70;59.70;;;;;;1871187;76;21697;-84
2022/03/06 11:24:26;;;;;;;28.30;25.25;;;33.70;60.80;;;;;;1872373;75;21578;-84
2022/03/06 11:26:57;;;;;;;27.37;23.95;;;33.70;60.30;;;;;;1860995;76;21159;-83
2022/03/06 11:29:30;;;;;;;34.00;26.75;;;33.70;60.30;;;;;;1868737;76;21210;-84
2022/03/06 11:32:04;;;;;;;82.35;30.77;;;33.70;61.20;;;;;;1863541;76;21128;-83
2022/03/06 11:34:40;;;;;;;35.33;24.25;;;33.70;65.10;;;;;;1864363;75;21227;-84
2022/03/06 11:37:13;;;;;;;39.92;18.05;;;33.40;66.50;;;;;;1862017;76;21213;-84
2022/03/06 11:39:46;;;;;;;21.95;13.48;;;32.90;64.20;;;;;;1838929;77;21718;-83
2022/03/06 11:42:19;;;;;;;27.00;15.88;;;32.40;63.60;;;;;;1812337;76;21225;-84
2022/03/06 11:44:51;;;;;;;26.40;17.52;;;31.90;66.50;;;;;;1838466;77;21096;-82
2022/03/06 11:47:24;;;;;;;18.62;12.47;;;31.50;69.60;;;;;;1838275;77;22629;-83
2022/03/06 11:50:00;;;;;;;19.00;12.23;;;31.10;69.30;;;;;;1839697;77;21281;-83
2022/03/06 11:52:33;;;;;;;13.15;9.58;;;30.80;67.90;;;;;;1799197;79;21156;-84
2022/03/06 11:55:06;;;;;;;15.35;9.30;;;30.50;67.20;;;;;;1806215;78;21720;-81
2022/03/06 11:57:39;;;;;;;14.58;9.80;;;30.30;66.90;;;;;;1800416;78;21215;-83
2022/03/06 12:00:13;;;;;;;14.33;9.25;;;30.10;69.00;;;;;;1804300;79;21172;-84
2022/03/06 12:02:46;;;;;;;20.57;12.88;;;29.90;69.90;;;;;;1840594;78;21163;-82
2022/03/06 12:05:18;;;;;;;23.18;12.58;;;29.80;72.30;;;;;;1824436;77;21733;-82
2022/03/06 12:07:50;;;;;;;16.95;13.15;;;29.50;72.10;;;;;;1853838;77;21622;-81
2022/03/06 12:10:22;;;;;;;13.40;11.25;;;29.30;72.70;;;;;;1803399;78;21152;-82
2022/03/06 12:12:55;;;;;;;9.88;8.63;;;29.20;72.80;;;;;;1797174;77;21179;-82
2022/03/06 12:15:29;;;;;;;11.73;8.78;;;29.10;69.50;;;;;;1816709;78;21136;-83
2022/03/06 12:18:02;;;;;;;12.07;8.53;;;29.00;69.40;;;;;;1833337;77;21198;-82
2022/03/06 12:20:36;;;;;;;11.63;7.40;;;28.90;70.60;;;;;;1833754;77;21201;-83
2022/03/06 12:23:07;;;;;;;12.23;7.50;;;28.90;70.30;;;;;;1862731;76;21159;-82
2022/03/06 12:25:39;;;;;;;12.33;8.30;;;28.80;72.20;;;;;;1852638;76;21257;-83
2022/03/06 12:28:13;;;;;;;10.32;7.12;;;28.90;71.70;;;;;;1845655;77;21193;-83
2022/03/06 12:30:44;;;;;;;8.93;6.75;;;28.90;69.30;;;;;;1858911;77;21143;-83
2022/03/06 12:33:17;;;;;;;8.78;7.03;;;28.90;70.00;;;;;;1851014;77;21415;-83
2022/03/06 12:35:48;;;;;;;10.10;8.38;;;28.90;71.10;;;;;;1850061;77;21092;-83
2022/03/06 12:38:21;;;;;;;10.43;8.95;;;29.00;72.10;;;;;;1850356;76;21144;-83
2022/03/06 12:40:52;;;;;;;12.18;8.30;;;29.00;72.00;;;;;;1835548;75;21727;-83
2022/03/06 12:43:26;;;;;;;9.93;8.28;;;29.00;70.90;;;;;;1848849;77;21210;-82
2022/03/06 12:45:57;;;;;;;10.58;9.50;;;29.10;71.10;;;;;;1855672;75;21115;-83
2022/03/06 12:48:30;;;;;;;11.83;9.95;;;29.10;71.20;;;;;;1852940;76;21060;-82
2022/03/06 12:51:00;;;;;;;13.62;11.30;;;29.20;72.20;;;;;;1855448;75;21188;-83